Time;durP1;ratioP1;P1;durP2;ratioP2;P2;SDS_P1;SDS_P2;PMS_P1;PMS_P2;Temp;Humidity;BMP_temperature;BMP_pressure;BME280_temperature;BME280_humidity;BME280_pressure;Samples;Min_cycle;Max_cycle;Signal;HPM_P1;HPM_P2
2023/12/26 00:02:10;;;;;;;1.87;0.93;;;;;;;7.69;100.00;96029.78;5034885;28;20236;-69
2023/12/26 00:04:37;;;;;;;1.70;0.93;;;;;;;7.86;100.00;96026.16;5033504;28;20197;-68
2023/12/26 00:07:04;;;;;;;1.50;0.87;;;;;;;7.87;100.00;96022.56;5033520;28;20197;-67
2023/12/26 00:09:30;;;;;;;1.90;1.07;;;;;;;7.98;100.00;96023.03;5032944;28;20208;-65
2023/12/26 00:11:57;;;;;;;1.53;1.10;;;;;;;7.98;98.44;96016.94;5033282;28;21091;-70
2023/12/26 00:14:23;;;;;;;1.13;1.00;;;;;;;7.76;100.00;96016.81;5033313;28;20212;-69
2023/12/26 00:16:51;;;;;;;2.00;1.13;;;;;;;7.84;100.00;96019.44;5033522;28;20675;-69
2023/12/26 00:19:18;;;;;;;2.50;0.90;;;;;;;7.73;100.00;96011.94;5034089;28;20232;-69
2023/12/26 00:21:44;;;;;;;1.90;1.10;;;;;;;7.63;100.00;96019.94;5037250;28;20212;-71
2023/12/26 00:24:11;;;;;;;1.47;1.00;;;;;;;7.49;100.00;96017.16;5038337;28;20227;-72
2023/12/26 00:26:38;;;;;;;1.03;0.87;;;;;;;7.73;100.00;96011.94;5038821;28;20204;-68
2023/12/26 00:29:05;;;;;;;1.43;1.00;;;;;;;7.40;100.00;96018.94;5038366;28;20247;-67
2023/12/26 00:31:32;;;;;;;1.27;0.90;;;;;;;7.51;100.00;96015.19;5038155;28;20270;-67
2023/12/26 00:34:00;;;;;;;3.67;1.07;;;;;;;7.70;100.00;96007.81;5039218;28;20259;-67
2023/12/26 00:36:26;;;;;;;2.27;1.30;;;;;;;7.45;100.00;96006.19;5037409;28;20202;-68
2023/12/26 00:38:53;;;;;;;1.17;1.00;;;;;;;7.48;100.00;96016.31;5038483;28;20323;-69
2023/12/26 00:41:19;;;;;;;0.73;0.70;;;;;;;7.29;100.00;96014.03;5039384;28;20194;-69
2023/12/26 00:43:46;;;;;;;2.20;1.10;;;;;;;7.45;100.00;96011.41;5038269;28;20711;-69
2023/12/26 00:46:13;;;;;;;1.17;0.80;;;;;;;7.45;100.00;96005.38;5037934;28;20216;-68
2023/12/26 00:48:39;;;;;;;2.70;1.23;;;;;;;7.38;100.00;96004.38;5038759;28;20281;-69
2023/12/26 00:51:07;;;;;;;2.17;1.00;;;;;;;7.58;100.00;96003.88;5037165;28;20228;-69
2023/12/26 00:53:34;;;;;;;1.37;0.80;;;;;;;7.48;100.00;95995.34;5038026;28;20225;-69
2023/12/26 00:56:00;;;;;;;2.70;1.00;;;;;;;7.35;100.00;95995.03;5038240;28;20205;-68
2023/12/26 00:58:27;;;;;;;1.67;0.93;;;;;;;7.50;100.00;95998.66;5037960;28;20197;-68
2023/12/26 01:00:53;;;;;;;1.93;0.80;;;;;;;7.45;100.00;96005.38;5038362;28;20228;-69
2023/12/26 01:03:22;;;;;;;1.07;0.83;;;;;;;7.46;100.00;95997.34;5036993;28;20230;-69
2023/12/26 01:05:48;;;;;;;1.83;1.30;;;;;;;7.56;100.00;96008.50;5038162;28;20288;-68
2023/12/26 01:08:17;;;;;;;2.40;0.70;;;;;;;7.66;100.00;96000.44;5037993;28;20209;-69
2023/12/26 01:10:43;;;;;;;1.13;0.80;;;;;;;7.50;100.00;96006.50;5038210;28;20278;-69
2023/12/26 01:13:10;;;;;;;2.07;1.07;;;;;;;7.49;100.00;96007.50;5037559;28;20233;-68
2023/12/26 01:15:36;;;;;;;2.43;1.00;;;;;;;7.46;100.00;95997.34;5037695;28;20205;-69
2023/12/26 01:18:03;;;;;;;1.30;1.20;;;;;;;7.49;100.00;96004.88;5037698;28;20201;-69
2023/12/26 01:20:30;;;;;;;2.30;1.10;;;;;;;7.34;100.00;96013.53;5037673;28;20205;-69
2023/12/26 01:22:56;;;;;;;0.97;0.90;;;;;;;7.36;100.00;96014.22;5038014;28;20750;-72
2023/12/26 01:25:24;;;;;;;4.03;1.10;;;;;;;7.51;100.00;96021.25;5037243;28;20202;-69
2023/12/26 01:27:51;;;;;;;3.33;0.97;;;;;;;7.31;100.00;96019.94;5037344;28;20208;-72
2023/12/26 01:30:19;;;;;;;1.73;1.03;;;;;;;7.36;100.00;96022.88;5037688;28;20205;-68
2023/12/26 01:32:45;;;;;;;2.17;1.60;;;;;;;7.33;100.00;96027.63;5035851;28;20343;-72
2023/12/26 01:35:12;;;;;;;2.17;1.30;;;;;;;7.30;100.00;96034.00;5037419;28;20231;-69
2023/12/26 01:37:38;;;;;;;1.70;0.90;;;;;;;7.46;100.00;96033.22;5038233;28;20201;-69
2023/12/26 01:40:06;;;;;;;1.13;1.00;;;;;;;7.34;100.00;96030.09;5037619;28;20584;-71
2023/12/26 01:42:34;;;;;;;0.87;0.80;;;;;;;7.37;100.00;96032.41;5036959;28;20217;-69
2023/12/26 01:45:01;;;;;;;5.90;1.40;;;;;;;7.12;100.00;96029.91;5037071;28;20205;-68
2023/12/26 01:47:28;;;;;;;2.27;1.10;;;;;;;7.01;100.00;96032.81;5036475;28;20219;-71
2023/12/26 01:49:55;;;;;;;1.73;1.23;;;;;;;7.04;100.00;96034.28;5038219;28;20263;-69
2023/12/26 01:52:21;;;;;;;1.40;1.10;;;;;;;6.86;100.00;96033.59;5036138;28;21075;-72
2023/12/26 01:54:48;;;;;;;1.83;1.20;;;;;;;7.02;100.00;96028.41;5036799;28;20197;-69
2023/12/26 01:57:15;;;;;;;1.33;0.90;;;;;;;6.88;100.00;96026.41;5035297;28;20200;-71
2023/12/26 01:59:43;;;;;;;1.10;1.00;;;;;;;7.02;100.00;96026.59;5037052;28;20201;-70
2023/12/26 02:02:12;;;;;;;2.53;1.60;;;;;;;7.07;100.00;96031.38;5034069;28;20226;-69
2023/12/26 02:04:39;;;;;;;2.27;1.30;;;;;;;7.01;100.00;96037.25;5035542;28;20197;-69
2023/12/26 02:07:07;;;;;;;3.53;1.30;;;;;;;7.16;100.00;96036.44;5035764;28;20212;-67
2023/12/26 02:09:35;;;;;;;3.77;1.30;;;;;;;7.18;100.00;96038.91;5035570;28;20208;-70
2023/12/26 02:12:02;;;;;;;1.00;0.90;;;;;;;6.99;100.00;96037.41;5034759;28;20229;-69
2023/12/26 02:14:28;;;;;;;2.03;1.30;;;;;;;6.90;100.00;96032.31;5033270;28;20322;-70
2023/12/26 02:17:00;;;;;;;3.80;1.17;;;;;;;6.85;100.00;96030.16;5036687;28;20220;-66
2023/12/26 02:19:26;;;;;;;3.00;1.00;;;;;;;6.85;100.00;96038.03;5036353;28;20233;-69
2023/12/26 02:21:53;;;;;;;1.60;0.83;;;;;;;6.74;100.00;96040.09;5036867;28;20197;-67
2023/12/26 02:24:20;;;;;;;1.00;0.90;;;;;;;6.79;100.00;96036.03;5036129;28;20212;-69
2023/12/26 02:26:52;;;;;;;1.57;0.83;;;;;;;6.97;100.00;96036.72;5036938;28;20216;-69
2023/12/26 02:29:19;;;;;;;2.53;1.17;;;;;;;6.54;100.00;96036.09;5036398;28;20205;-69
2023/12/26 02:31:48;;;;;;;2.80;1.33;;;;;;;6.80;100.00;96040.28;5035578;28;20232;-69
2023/12/26 02:34:15;;;;;;;1.30;0.97;;;;;;;6.84;100.00;96043.41;5036353;28;20225;-69
2023/12/26 02:36:42;;;;;;;2.80;1.60;;;;;;;6.70;100.00;96038.78;5036530;28;20205;-69
2023/12/26 02:39:10;;;;;;;4.17;1.73;;;;;;;6.75;100.00;96044.38;5036477;28;20201;-69
2023/12/26 02:41:38;;;;;;;2.07;1.30;;;;;;;6.87;100.00;96043.09;5035493;28;20625;-69
2023/12/26 02:44:05;;;;;;;3.23;1.03;;;;;;;6.65;100.00;96041.06;5036428;28;20244;-69
2023/12/26 02:46:31;;;;;;;2.30;1.20;;;;;;;6.63;100.00;96050.84;5036321;28;20197;-69
2023/12/26 02:48:58;;;;;;;1.57;1.07;;;;;;;6.53;100.00;96058.03;5036470;28;20209;-69
2023/12/26 02:51:24;;;;;;;2.50;1.03;;;;;;;6.30;100.00;96056.09;5035591;28;20209;-69
2023/12/26 02:53:51;;;;;;;1.97;1.27;;;;;;;6.38;100.00;96049.13;5036248;28;21090;-69
2023/12/26 02:56:18;;;;;;;2.67;1.77;;;;;;;6.39;100.00;96053.38;5036144;28;20201;-69
2023/12/26 02:58:46;;;;;;;2.37;1.10;;;;;;;6.43;100.00;96049.47;5035412;28;20208;-68
2023/12/26 03:01:12;;;;;;;1.57;1.17;;;;;;;6.32;100.00;96049.72;5034783;28;20260;-68
2023/12/26 03:03:39;;;;;;;2.37;1.23;;;;;;;6.27;100.00;96054.59;5036172;28;20217;-69
2023/12/26 03:06:07;;;;;;;2.63;1.10;;;;;;;6.25;100.00;96063.59;5036174;28;20683;-69
2023/12/26 03:08:34;;;;;;;2.53;1.20;;;;;;;6.40;100.00;96062.88;5035653;28;20300;-70
2023/12/26 03:11:00;;;;;;;1.70;1.27;;;;;;;6.34;100.00;96067.88;5035670;28;20212;-69
2023/12/26 03:13:27;;;;;;;3.90;1.57;;;;;;;6.27;100.00;96064.25;5036021;28;20229;-69
2023/12/26 03:15:54;;;;;;;1.50;1.20;;;;;;;6.35;100.00;96072.16;5035560;28;20205;-69
2023/12/26 03:18:21;;;;;;;2.20;1.47;;;;;;;6.04;100.00;96065.75;5033533;28;20201;-72
2023/12/26 03:20:47;;;;;;;2.20;1.50;;;;;;;6.14;100.00;96079.56;5036414;28;20640;-69
2023/12/26 03:23:14;;;;;;;1.60;1.00;;;;;;;6.12;100.00;96081.50;5033870;28;20254;-69
2023/12/26 03:25:40;;;;;;;2.13;1.50;;;;;;;5.97;100.00;96090.06;5035396;28;20200;-71
2023/12/26 03:28:07;;;;;;;1.27;1.03;;;;;;;5.81;100.00;96090.75;5035476;28;20212;-71
2023/12/26 03:30:33;;;;;;;4.70;1.40;;;;;;;5.79;100.00;96097.09;5035067;28;20210;-72
2023/12/26 03:33:01;;;;;;;1.40;1.30;;;;;;;5.58;100.00;96091.34;5035408;28;20232;-70
2023/12/26 03:35:28;;;;;;;1.60;1.33;;;;;;;5.53;100.00;96096.22;5034345;28;20204;-69
2023/12/26 03:37:54;;;;;;;2.63;1.20;;;;;;;5.68;100.00;96089.50;5035998;28;20219;-71
2023/12/26 03:40:21;;;;;;;2.10;1.30;;;;;;;5.56;100.00;96101.13;5035151;28;20694;-69
2023/12/26 03:42:47;;;;;;;2.60;1.27;;;;;;;5.51;100.00;96092.91;5035557;28;20224;-68
2023/12/26 03:45:14;;;;;;;8.37;1.93;;;;;;;5.67;100.00;96103.53;5035237;28;20212;-69
2023/12/26 03:47:40;;;;;;;2.33;1.67;;;;;;;5.66;100.00;96096.66;5035928;28;20231;-69
2023/12/26 03:50:10;;;;;;;3.57;1.53;;;;;;;5.79;100.00;96100.56;5035957;28;20204;-69
2023/12/26 03:52:37;;;;;;;2.13;1.70;;;;;;;5.71;100.00;96107.47;5034313;28;20238;-69
2023/12/26 03:55:04;;;;;;;3.47;1.50;;;;;;;5.73;100.00;96108.16;5036237;28;20207;-69
2023/12/26 03:57:31;;;;;;;2.67;1.93;;;;;;;5.55;100.00;96109.97;5038695;28;20209;-69
2023/12/26 03:59:58;;;;;;;4.23;1.60;;;;;;;5.44;100.00;96107.56;5039091;28;20205;-69
2023/12/26 04:02:24;;;;;;;4.23;1.60;;;;;;;5.55;100.00;96115.19;5038956;28;20236;-69
2023/12/26 04:04:51;;;;;;;2.17;1.63;;;;;;;5.62;100.00;96116.22;5040148;28;20232;-69
2023/12/26 04:07:18;;;;;;;2.20;1.83;;;;;;;5.68;100.00;96110.41;5038913;28;20212;-69
2023/12/26 04:09:45;;;;;;;2.80;1.53;;;;;;;5.55;100.00;96110.78;5039752;28;20205;-69
2023/12/26 04:12:12;;;;;;;2.50;1.47;;;;;;;5.56;100.00;96117.66;5039127;28;20236;-69
2023/12/26 04:14:38;;;;;;;2.10;1.40;;;;;;;5.43;100.00;96122.44;5038917;28;20290;-69
2023/12/26 04:17:05;;;;;;;2.30;1.40;;;;;;;5.65;100.00;96110.69;5039009;28;20212;-69
2023/12/26 04:19:31;;;;;;;2.23;1.40;;;;;;;5.65;100.00;96110.69;5039503;28;20677;-69
2023/12/26 04:21:58;;;;;;;2.67;1.63;;;;;;;5.60;100.00;96120.75;5038519;28;20205;-70
2023/12/26 04:24:26;;;;;;;7.73;1.73;;;;;;;5.66;100.00;96120.97;5038671;28;20264;-69
2023/12/26 04:26:52;;;;;;;2.50;1.30;;;;;;;5.66;100.00;96122.78;5039607;28;20833;-71
2023/12/26 04:29:19;;;;;;;3.17;2.00;;;;;;;5.79;100.00;96116.25;5038174;28;20212;-69
2023/12/26 04:31:45;;;;;;;4.70;1.53;;;;;;;5.75;100.00;96129.72;5038491;28;20213;-69
2023/12/26 04:34:12;;;;;;;7.73;1.73;;;;;;;5.89;100.00;96127.41;5037910;28;20232;-69
2023/12/26 04:36:38;;;;;;;2.30;1.30;;;;;;;5.77;100.00;96127.81;5038223;28;20570;-72
2023/12/26 04:39:05;;;;;;;4.30;1.47;;;;;;;5.67;100.00;96124.44;5038839;28;20594;-70
2023/12/26 04:41:33;;;;;;;3.27;1.70;;;;;;;5.91;100.00;96127.28;5038229;28;20205;-69
2023/12/26 04:43:59;;;;;;;3.00;1.33;;;;;;;5.68;100.00;96126.09;5038347;28;20221;-69
2023/12/26 04:46:26;;;;;;;3.00;1.20;;;;;;;5.78;100.00;96138.13;5038458;28;21268;-67
2023/12/26 04:48:53;;;;;;;1.93;1.37;;;;;;;5.67;100.00;96133.09;5037617;28;20693;-69
2023/12/26 04:51:20;;;;;;;3.03;1.67;;;;;;;5.82;100.00;96130.81;5038119;28;20463;-70
2023/12/26 04:53:47;;;;;;;2.10;1.33;;;;;;;5.77;100.00;96125.22;5038214;28;21105;-70
2023/12/26 04:56:16;;;;;;;2.33;1.40;;;;;;;5.91;100.00;96129.91;5038347;28;20212;-69
2023/12/26 04:58:45;;;;;;;3.00;1.57;;;;;;;5.83;100.00;96127.19;5037802;28;20216;-70
2023/12/26 05:01:12;;;;;;;2.93;1.20;;;;;;;5.90;100.00;96130.88;5037643;28;20212;-68
2023/12/26 05:03:38;;;;;;;3.73;1.80;;;;;;;5.98;100.00;96129.13;5038492;28;20229;-68
2023/12/26 05:06:06;;;;;;;8.83;1.67;;;;;;;5.83;100.00;96132.44;5037943;28;20212;-69
2023/12/26 05:08:32;;;;;;;2.97;1.90;;;;;;;5.79;100.00;96133.72;5037884;28;20255;-70
2023/12/26 05:10:59;;;;;;;5.30;1.77;;;;;;;5.78;100.00;96142.50;5038261;28;20258;-69
2023/12/26 05:13:25;;;;;;;3.47;1.70;;;;;;;5.81;100.00;96142.25;5038029;28;20232;-70
2023/12/26 05:15:53;;;;;;;4.80;1.93;;;;;;;6.02;100.00;96145.34;5037315;28;20207;-69
2023/12/26 05:18:20;;;;;;;10.47;2.40;;;;;;;6.03;100.00;96145.19;5038002;28;20215;-69
2023/12/26 05:20:46;;;;;;;5.70;1.53;;;;;;;5.94;100.00;96150.50;5038544;28;20208;-70
2023/12/26 05:23:13;;;;;;;3.20;1.70;;;;;;;6.06;100.00;96156.16;5036393;28;20228;-68
2023/12/26 05:25:39;;;;;;;2.93;1.50;;;;;;;5.79;100.00;96159.84;5037363;28;21144;-67
2023/12/26 05:28:06;;;;;;;1.27;1.17;;;;;;;5.71;100.00;96162.38;5038031;28;20215;-69
2023/12/26 05:30:33;;;;;;;2.53;1.30;;;;;;;5.93;100.00;96156.72;5037464;28;20201;-68
2023/12/26 05:33:01;;;;;;;3.63;1.50;;;;;;;6.03;100.00;96170.53;5037472;28;20299;-70
2023/12/26 05:35:27;;;;;;;1.97;1.30;;;;;;;6.07;100.00;96165.66;5037673;28;20205;-67
2023/12/26 05:37:54;;;;;;;3.40;1.40;;;;;;;6.10;100.00;96170.59;5037416;28;20207;-69
2023/12/26 05:40:20;;;;;;;2.30;1.60;;;;;;;6.01;100.00;96175.91;5037329;28;20205;-67
2023/12/26 05:42:47;;;;;;;2.97;1.30;;;;;;;5.71;100.00;96178.06;5037565;28;20222;-67
2023/12/26 05:45:14;;;;;;;4.10;1.30;;;;;;;5.60;100.00;96178.25;5037076;28;20208;-70
2023/12/26 05:47:41;;;;;;;3.43;1.40;;;;;;;5.82;100.00;96170.03;5037565;28;20208;-69
2023/12/26 05:50:10;;;;;;;3.37;2.03;;;;;;;6.18;100.00;96173.25;5036916;28;20201;-69
2023/12/26 05:52:36;;;;;;;3.67;1.40;;;;;;;6.02;100.00;96174.94;5036266;28;20229;-69
2023/12/26 05:55:03;;;;;;;2.10;1.20;;;;;;;6.02;100.00;96166.25;5037535;28;20648;-69
2023/12/26 05:57:31;;;;;;;5.23;1.47;;;;;;;5.90;100.00;96170.09;5037528;28;20666;-69
2023/12/26 05:59:57;;;;;;;1.90;1.10;;;;;;;5.80;100.00;96171.97;5037142;28;20290;-68
2023/12/26 06:02:24;;;;;;;3.27;1.43;;;;;;;5.93;100.00;96167.16;5036520;28;20592;-69
2023/12/26 06:04:50;;;;;;;5.10;1.40;;;;;;;5.93;100.00;96177.63;5037593;28;20204;-69
2023/12/26 06:07:18;;;;;;;3.80;2.13;;;;;;;6.04;100.00;96180.84;5036513;28;20585;-70
2023/12/26 06:09:45;;;;;;;2.33;1.30;;;;;;;6.01;100.00;96181.16;5036931;28;20987;-67
2023/12/26 06:12:12;;;;;;;2.07;1.33;;;;;;;5.80;100.00;96179.81;5036858;28;20220;-70
2023/12/26 06:14:39;;;;;;;2.20;1.47;;;;;;;6.06;100.00;96186.75;5037370;28;20225;-69
2023/12/26 06:17:06;;;;;;;2.13;1.30;;;;;;;6.00;100.00;96192.56;5036611;28;20201;-68
2023/12/26 06:19:32;;;;;;;4.30;1.53;;;;;;;6.08;100.00;96193.47;5036646;28;20201;-68
2023/12/26 06:21:59;;;;;;;5.30;1.53;;;;;;;5.96;100.00;96198.25;5035386;28;20205;-69
2023/12/26 06:24:26;;;;;;;4.07;1.60;;;;;;;6.07;100.00;96202.28;5037636;28;20198;-69
2023/12/26 06:26:53;;;;;;;2.70;1.60;;;;;;;5.78;100.00;96197.41;5037292;28;20588;-70
2023/12/26 06:29:19;;;;;;;1.60;1.20;;;;;;;5.91;100.00;96201.31;5036820;28;21133;-70
2023/12/26 06:31:46;;;;;;;2.53;1.23;;;;;;;5.96;100.00;96208.69;5035950;28;20205;-70
2023/12/26 06:34:12;;;;;;;2.23;1.40;;;;;;;5.86;100.00;96200.94;5037021;28;20232;-68
2023/12/26 06:36:39;;;;;;;4.87;2.37;;;;;;;5.95;100.00;96199.22;5036373;28;20219;-67
2023/12/26 06:39:05;;;;;;;7.23;2.73;;;;;;;6.00;100.00;96215.31;5036090;28;20215;-70
2023/12/26 06:41:33;;;;;;;16.07;3.70;;;;;;;5.86;100.00;96207.97;5036680;28;20207;-69
2023/12/26 06:44:00;;;;;;;10.93;3.73;;;;;;;5.81;100.00;96202.38;5036433;28;20228;-70
2023/12/26 06:46:27;;;;;;;10.13;3.23;;;;;;;5.90;100.00;96204.91;5035931;28;20197;-68
2023/12/26 06:48:53;;;;;;;31.40;6.97;;;;;;;5.98;100.00;96212.00;5035947;28;20226;-69
2023/12/26 06:51:20;;;;;;;27.30;7.43;;;;;;;6.00;100.00;96215.31;5035292;28;20212;-68
2023/12/26 06:53:47;;;;;;;45.03;10.80;;;;;;;5.89;100.00;96216.31;5035535;28;20570;-68
2023/12/26 06:56:13;;;;;;;27.60;8.90;;;;;;;5.96;100.00;96219.16;5036954;28;20212;-69
2023/12/26 06:58:41;;;;;;;37.60;11.67;;;;;;;5.70;100.00;96226.06;5036349;28;20205;-68
2023/12/26 07:01:10;;;;;;;29.87;9.17;;;;;;;5.87;100.00;96225.28;5034658;28;20204;-70
2023/12/26 07:03:36;;;;;;;17.20;6.30;;;;;;;5.97;100.00;96242.56;5033757;28;20273;-68
2023/12/26 07:06:03;;;;;;;25.87;9.77;;;;;;;5.96;100.00;96240.09;5030429;28;20201;-69
2023/12/26 07:08:29;;;;;;;16.27;5.63;;;;;;;5.99;100.00;96245.03;5033947;28;20296;-69
2023/12/26 07:10:55;;;;;;;15.00;6.20;;;;;;;6.04;100.00;96243.59;5033989;28;20209;-68
2023/12/26 07:13:22;;;;;;;6.63;3.37;;;;;;;6.03;100.00;96249.00;5033782;28;20714;-69
2023/12/26 07:15:51;;;;;;;10.43;4.93;;;;;;;6.25;100.00;96252.81;5033615;28;20201;-69
2023/12/26 07:18:18;;;;;;;10.13;4.77;;;;;;;6.05;100.00;96256.53;5034321;28;20211;-69
2023/12/26 07:20:44;;;;;;;18.53;5.37;;;;;;;6.14;100.00;96260.06;5034382;28;20210;-69
2023/12/26 07:23:11;;;;;;;8.17;2.97;;;;;;;5.89;100.00;96262.59;5033952;28;20217;-69
2023/12/26 07:25:38;;;;;;;8.43;3.90;;;;;;;5.96;100.00;96266.22;5035261;28;20193;-69
2023/12/26 07:28:05;;;;;;;11.13;3.40;;;;;;;6.19;100.00;96266.47;5035306;28;20718;-69
2023/12/26 07:30:32;;;;;;;8.23;2.70;;;;;;;6.14;100.00;96268.72;5033883;28;20206;-69
2023/12/26 07:33:00;;;;;;;6.00;2.87;;;;;;;6.29;100.00;96264.59;5034822;28;20266;-69
2023/12/26 07:35:29;;;;;;;11.23;3.37;;;;;;;6.11;100.00;96268.22;5035987;28;20204;-69
2023/12/26 07:37:55;;;;;;;8.27;3.43;;;;;;;6.01;100.00;96271.84;5034990;28;20404;-69
2023/12/26 07:40:21;;;;;;;3.47;2.00;;;;;;;6.07;100.00;96280.75;5034888;28;20204;-69
2023/12/26 07:42:48;;;;;;;9.70;2.80;;;;;;;6.19;100.00;96279.56;5034686;28;20232;-69
2023/12/26 07:45:15;;;;;;;2.57;1.60;;;;;;;6.07;100.00;96286.00;5035003;28;20662;-69
2023/12/26 07:47:41;;;;;;;5.97;1.70;;;;;;;7.16;100.00;96281.94;5034358;28;20216;-69
2023/12/26 07:50:09;;;;;;;2.80;1.87;;;;;;;7.03;100.00;96281.53;5035740;28;21247;-69
2023/12/26 07:52:36;;;;;;;5.90;2.27;;;;;;;6.64;100.00;96280.28;5033663;28;20224;-69
2023/12/26 07:55:03;;;;;;;2.40;1.60;;;;;;;6.67;100.00;96293.88;5033283;28;20769;-69
2023/12/26 07:57:29;;;;;;;3.10;2.27;;;;;;;6.61;100.00;96288.44;5035039;28;20228;-69
2023/12/26 07:59:56;;;;;;;5.47;2.10;;;;;;;6.80;100.00;96290.88;5033953;28;20216;-69
2023/12/26 08:02:22;;;;;;;11.87;4.80;;;;;;;6.55;100.00;96304.75;5033092;28;20232;-69
2023/12/26 08:04:49;;;;;;;2.93;1.90;;;;;;;6.34;100.00;96301.63;5034165;28;20205;-73
2023/12/26 08:07:17;;;;;;;5.40;2.10;;;;;;;6.67;100.00;96300.94;5032310;28;20258;-69
2023/12/26 08:09:43;;;;;;;3.33;1.50;;;;;;;6.69;100.00;96302.44;5033511;28;20209;-69
2023/12/26 08:12:10;;;;;;;1.90;1.50;;;;;;;6.77;100.00;96293.78;5032476;28;20691;-68
2023/12/26 08:14:36;;;;;;;2.97;1.77;;;;;;;6.79;100.00;96289.22;5033819;28;20217;-69
2023/12/26 08:17:03;;;;;;;12.63;4.17;;;;;;;6.72;100.00;96293.41;5033323;28;20197;-70
2023/12/26 08:19:31;;;;;;;4.83;2.60;;;;;;;6.65;100.00;96302.88;5033602;28;20201;-69
2023/12/26 08:21:58;;;;;;;10.43;3.93;;;;;;;6.51;100.00;96300.78;5032682;28;20212;-72
2023/12/26 08:24:26;;;;;;;6.23;2.27;;;;;;;6.98;100.00;96308.19;5033759;28;20247;-69
2023/12/26 08:26:53;;;;;;;8.83;3.90;;;;;;;6.69;100.00;96306.81;5033630;28;20217;-69
2023/12/26 08:29:19;;;;;;;6.63;2.70;;;;;;;6.91;100.00;96306.31;5034955;28;20588;-69
2023/12/26 08:31:46;;;;;;;4.07;2.13;;;;;;;6.94;100.00;96313.91;5034465;28;20575;-69
2023/12/26 08:34:13;;;;;;;3.93;1.93;;;;;;;7.10;100.00;96316.63;5034829;28;20229;-73
2023/12/26 08:36:39;;;;;;;6.13;2.10;;;;;;;6.92;100.00;96311.41;5033296;28;20282;-70
2023/12/26 08:39:06;;;;;;;11.57;4.20;;;;;;;7.18;100.00;96324.53;5034883;28;20201;-69
2023/12/26 08:41:33;;;;;;;7.20;2.83;;;;;;;7.40;100.00;96323.03;5034983;28;20201;-69
2023/12/26 08:44:00;;;;;;;2.07;1.40;;;;;;;7.27;100.00;96316.56;5037923;28;20729;-70
2023/12/26 08:46:26;;;;;;;1.23;1.00;;;;;;;7.38;100.00;96325.00;5038838;28;20204;-69
2023/12/26 08:48:53;;;;;;;2.00;1.20;;;;;;;7.38;100.00;96325.00;5038061;28;20216;-67
2023/12/26 08:51:20;;;;;;;6.67;2.17;;;;;;;7.61;100.00;96315.59;5038593;28;20202;-69
2023/12/26 08:53:47;;;;;;;4.20;1.47;;;;;;;7.79;100.00;96318.13;5035505;28;20725;-68
2023/12/26 08:56:13;;;;;;;4.00;1.90;;;;;;;7.58;100.00;96315.91;5036633;28;20205;-69
2023/12/26 08:58:41;;;;;;;2.30;1.47;;;;;;;7.96;100.00;96318.03;5037151;28;20201;-69
2023/12/26 09:01:10;;;;;;;1.70;1.40;;;;;;;7.78;100.00;96330.44;5035616;28;20198;-68
2023/12/26 09:03:37;;;;;;;3.87;1.80;;;;;;;7.93;100.00;96328.84;5037227;28;20218;-68
2023/12/26 09:06:04;;;;;;;3.70;1.50;;;;;;;7.98;100.00;96332.63;5035221;28;20206;-68
2023/12/26 09:08:31;;;;;;;8.27;1.80;;;;;;;7.96;100.00;96334.59;5035249;28;20334;-69
2023/12/26 09:10:58;;;;;;;2.20;1.33;;;;;;;7.84;100.00;96342.94;5034585;28;20296;-69
2023/12/26 09:13:26;;;;;;;2.27;1.40;;;;;;;7.88;100.00;96347.69;5036381;28;20221;-69
2023/12/26 09:15:53;;;;;;;3.80;1.40;;;;;;;8.08;100.00;96340.38;5037528;28;20251;-68
2023/12/26 09:18:23;;;;;;;2.70;1.30;;;;;;;8.01;100.00;96344.63;5037157;28;20288;-69
2023/12/26 09:20:49;;;;;;;3.10;1.87;;;;;;;8.06;100.00;96342.34;5037498;28;20209;-68
2023/12/26 09:23:18;;;;;;;1.97;1.20;;;;;;;8.07;100.00;96354.47;5033941;28;20228;-69
2023/12/26 09:25:44;;;;;;;1.70;1.20;;;;;;;8.09;100.00;96352.50;5036067;28;20207;-68
2023/12/26 09:28:13;;;;;;;2.67;1.07;;;;;;;8.17;100.00;96349.94;5037905;28;20197;-69
2023/12/26 09:30:39;;;;;;;2.07;1.37;;;;;;;8.38;100.00;96347.72;5032649;28;20216;-69
2023/12/26 09:33:07;;;;;;;1.27;1.10;;;;;;;8.22;100.00;96366.03;5035587;28;20749;-69
2023/12/26 09:35:34;;;;;;;1.60;1.30;;;;;;;8.41;100.00;96357.88;5035941;28;20224;-68
2023/12/26 09:38:00;;;;;;;1.23;1.00;;;;;;;8.51;100.00;96359.38;5035168;28;20224;-69
2023/12/26 09:40:27;;;;;;;3.83;1.53;;;;;;;8.66;100.00;96369.09;5036040;28;20201;-70
2023/12/26 09:42:58;;;;;;;3.93;1.43;;;;;;;8.78;100.00;96372.22;5034796;28;20649;-69
2023/12/26 09:45:27;;;;;;;6.87;1.40;;;;;;;8.79;100.00;96379.13;5035689;28;20284;-70
2023/12/26 09:47:54;;;;;;;1.07;0.80;;;;;;;8.53;100.00;96384.50;5034947;28;20252;-69
2023/12/26 09:50:22;;;;;;;3.10;1.20;;;;;;;8.84;100.00;96382.91;5035087;28;20291;-67
2023/12/26 09:52:52;;;;;;;1.40;0.93;;;;;;;9.08;100.00;96389.00;5034704;28;20217;-70
2023/12/26 09:55:19;;;;;;;2.00;1.27;;;;;;;8.97;100.00;96391.13;5034521;28;20224;-69
2023/12/26 09:57:46;;;;;;;1.63;1.07;;;;;;;8.76;100.00;96393.41;5035802;28;20227;-69
2023/12/26 10:00:13;;;;;;;1.73;1.30;;;;;;;8.86;100.00;96394.09;5034876;28;20205;-69
2023/12/26 10:02:40;;;;;;;2.97;1.23;;;;;;;8.83;100.00;96399.66;5033307;28;20239;-69
2023/12/26 10:05:07;;;;;;;1.27;0.90;;;;;;;9.01;100.00;96404.75;5035616;28;20197;-69
2023/12/26 10:07:35;;;;;;;6.47;1.70;;;;;;;9.18;100.00;96408.06;5035698;28;20209;-70
2023/12/26 10:10:02;;;;;;;4.00;1.20;;;;;;;8.94;100.00;96404.59;5033932;28;20211;-70
2023/12/26 10:12:30;;;;;;;1.30;1.10;;;;;;;9.17;100.00;96416.13;5035876;28;20266;-70
2023/12/26 10:14:58;;;;;;;1.67;0.93;;;;;;;9.16;100.00;96419.72;5036482;28;20231;-68
2023/12/26 10:17:26;;;;;;;4.07;1.03;;;;;;;9.09;100.00;96414.31;5034536;28;20205;-70
2023/12/26 10:19:56;;;;;;;0.67;0.67;;;;;;;9.30;100.00;96416.44;5035378;28;20208;-69
2023/12/26 10:22:23;;;;;;;5.07;1.63;;;;;;;9.09;100.00;96413.50;5035227;28;20233;-70
2023/12/26 10:24:51;;;;;;;2.27;1.77;;;;;;;9.25;100.00;96413.47;5036334;28;20208;-70
2023/12/26 10:27:18;;;;;;;1.63;1.27;;;;;;;8.99;100.00;96402.31;5035914;28;20210;-68
2023/12/26 10:29:51;;;;;;;1.67;1.33;;;;;;;8.99;100.00;96397.06;5036884;28;20670;-70
2023/12/26 10:32:17;;;;;;;1.20;0.93;;;;;;;8.95;100.00;96401.00;5035759;28;20309;-70
2023/12/26 10:34:44;;;;;;;7.13;1.70;;;;;;;9.01;100.00;96399.50;5036912;28;20240;-69
2023/12/26 10:37:11;;;;;;;3.73;1.13;;;;;;;9.45;100.00;96399.00;5034753;28;20201;-70
2023/12/26 10:39:38;;;;;;;5.27;2.47;;;;;;;9.24;100.00;96396.06;5030895;28;20205;-71
2023/12/26 10:42:07;;;;;;;1.50;0.97;;;;;;;9.36;100.00;96392.13;5033796;28;20201;-70
2023/12/26 10:44:34;;;;;;;1.60;0.97;;;;;;;9.17;100.00;96384.56;5034513;28;20290;-71
2023/12/26 10:47:01;;;;;;;2.70;1.40;;;;;;;9.15;100.00;96392.63;5034520;28;20205;-70
2023/12/26 10:49:28;;;;;;;1.80;1.20;;;;;;;9.34;100.00;96396.72;5035084;28;20206;-70
2023/12/26 10:52:00;;;;;;;5.17;1.60;;;;;;;9.23;100.00;96394.44;5034103;28;20224;-70
2023/12/26 10:54:28;;;;;;;1.80;1.07;;;;;;;9.33;100.00;96400.31;5033222;28;20706;-69
2023/12/26 10:56:58;;;;;;;4.30;1.23;;;;;;;9.52;100.00;96400.81;5033518;28;20198;-69
2023/12/26 10:59:27;;;;;;;4.90;1.50;;;;;;;9.46;100.00;96404.09;5034215;28;21140;-69
2023/12/26 11:01:52;;;;;;;4.50;1.20;;;;;;;9.29;100.00;96406.91;5033872;28;20220;-68
2023/12/26 11:04:18;;;;;;;3.30;1.53;;;;;;;9.44;100.00;96397.38;5035022;28;20625;-68
2023/12/26 11:06:45;;;;;;;3.10;1.40;;;;;;;9.39;100.00;96402.28;5033828;28;20205;-70
2023/12/26 11:09:11;;;;;;;2.47;1.23;;;;;;;9.64;100.00;96406.56;5034952;28;20983;-70
2023/12/26 11:11:37;;;;;;;1.53;1.30;;;;;;;9.72;100.00;96409.97;5033548;28;20209;-70
2023/12/26 11:14:06;;;;;;;1.70;1.30;;;;;;;9.81;100.00;96401.06;5033962;28;20221;-70
2023/12/26 11:16:35;;;;;;;1.07;0.97;;;;;;;9.67;100.00;96390.44;5032714;28;20208;-70
2023/12/26 11:19:01;;;;;;;1.53;1.10;;;;;;;9.90;100.00;96400.06;5035091;28;20227;-71
2023/12/26 11:21:30;;;;;;;2.13;1.30;;;;;;;10.14;100.00;96400.03;5033407;28;20209;-69
2023/12/26 11:23:58;;;;;;;1.33;1.13;;;;;;;10.09;100.00;96395.25;5032555;28;20225;-70
2023/12/26 11:26:24;;;;;;;2.67;1.83;;;;;;;10.15;100.00;96399.84;5034227;28;20239;-69
2023/12/26 11:28:51;;;;;;;5.00;1.40;;;;;;;10.30;100.00;96403.41;5033486;28;20209;-71
2023/12/26 11:31:17;;;;;;;1.53;1.00;;;;;;;10.37;100.00;96428.06;5032736;28;20205;-69